sensor_id;sensor_type;location;lat;lon;timestamp;P1;durP1;ratioP1;P2;durP2;ratioP2
9388;SDS011;4734;52.778;6.798;2023-08-20T00:01:35;6.00;;;2.58;;
9388;SDS011;4734;52.778;6.798;2023-08-20T00:04:21;2.53;;;2.33;;
9388;SDS011;4734;52.778;6.798;2023-08-20T00:07:09;3.92;;;2.10;;
9388;SDS011;4734;52.778;6.798;2023-08-20T00:09:56;2.97;;;2.20;;
9388;SDS011;4734;52.778;6.798;2023-08-20T00:12:41;3.95;;;2.50;;
9388;SDS011;4734;52.778;6.798;2023-08-20T00:15:27;2.65;;;1.95;;
9388;SDS011;4734;52.778;6.798;2023-08-20T00:18:14;5.30;;;2.10;;
9388;SDS011;4734;52.778;6.798;2023-08-20T00:21:00;5.85;;;2.70;;
9388;SDS011;4734;52.778;6.798;2023-08-20T00:23:46;3.22;;;2.10;;
9388;SDS011;4734;52.778;6.798;2023-08-20T00:26:34;5.28;;;2.72;;
9388;SDS011;4734;52.778;6.798;2023-08-20T00:29:20;4.72;;;2.30;;
9388;SDS011;4734;52.778;6.798;2023-08-20T00:32:06;4.85;;;2.70;;
9388;SDS011;4734;52.778;6.798;2023-08-20T00:34:51;5.25;;;2.85;;
9388;SDS011;4734;52.778;6.798;2023-08-20T00:37:37;3.45;;;2.20;;
9388;SDS011;4734;52.778;6.798;2023-08-20T00:40:23;3.35;;;2.28;;
9388;SDS011;4734;52.778;6.798;2023-08-20T00:43:10;7.13;;;2.20;;
9388;SDS011;4734;52.778;6.798;2023-08-20T00:45:55;3.28;;;2.35;;
9388;SDS011;4734;52.778;6.798;2023-08-20T00:48:43;2.53;;;2.30;;
9388;SDS011;4734;52.778;6.798;2023-08-20T00:51:29;2.33;;;2.13;;
9388;SDS011;4734;52.778;6.798;2023-08-20T00:54:17;3.60;;;2.08;;
9388;SDS011;4734;52.778;6.798;2023-08-20T00:57:03;4.68;;;2.30;;
9388;SDS011;4734;52.778;6.798;2023-08-20T00:59:50;6.53;;;3.25;;
9388;SDS011;4734;52.778;6.798;2023-08-20T01:02:36;3.83;;;3.03;;
9388;SDS011;4734;52.778;6.798;2023-08-20T01:05:23;3.20;;;2.55;;
9388;SDS011;4734;52.778;6.798;2023-08-20T01:08:16;3.20;;;2.78;;
9388;SDS011;4734;52.778;6.798;2023-08-20T01:11:12;2.80;;;2.60;;
9388;SDS011;4734;52.778;6.798;2023-08-20T01:14:13;3.25;;;2.50;;
9388;SDS011;4734;52.778;6.798;2023-08-20T01:17:01;3.90;;;2.80;;
9388;SDS011;4734;52.778;6.798;2023-08-20T01:19:47;4.80;;;3.60;;
9388;SDS011;4734;52.778;6.798;2023-08-20T01:25:50;3.60;;;3.10;;
9388;SDS011;4734;52.778;6.798;2023-08-20T01:28:53;2.92;;;2.72;;
9388;SDS011;4734;52.778;6.798;2023-08-20T01:31:39;6.28;;;3.72;;
9388;SDS011;4734;52.778;6.798;2023-08-20T01:34:25;5.93;;;4.30;;
9388;SDS011;4734;52.778;6.798;2023-08-20T01:37:11;5.63;;;4.15;;
9388;SDS011;4734;52.778;6.798;2023-08-20T01:39:56;9.48;;;4.53;;
9388;SDS011;4734;52.778;6.798;2023-08-20T01:42:42;6.50;;;4.22;;
9388;SDS011;4734;52.778;6.798;2023-08-20T01:45:29;10.10;;;4.82;;
9388;SDS011;4734;52.778;6.798;2023-08-20T01:48:15;3.65;;;2.88;;
9388;SDS011;4734;52.778;6.798;2023-08-20T01:51:00;5.68;;;3.22;;
9388;SDS011;4734;52.778;6.798;2023-08-20T01:53:46;4.07;;;3.53;;
9388;SDS011;4734;52.778;6.798;2023-08-20T01:56:32;4.82;;;2.97;;
9388;SDS011;4734;52.778;6.798;2023-08-20T01:59:17;3.05;;;2.72;;
9388;SDS011;4734;52.778;6.798;2023-08-20T02:02:04;3.53;;;2.30;;
9388;SDS011;4734;52.778;6.798;2023-08-20T02:04:50;2.30;;;2.10;;
9388;SDS011;4734;52.778;6.798;2023-08-20T02:07:36;3.15;;;2.40;;
9388;SDS011;4734;52.778;6.798;2023-08-20T02:10:22;2.40;;;2.20;;
9388;SDS011;4734;52.778;6.798;2023-08-20T02:13:08;3.47;;;2.70;;
9388;SDS011;4734;52.778;6.798;2023-08-20T02:15:57;1.98;;;1.88;;
9388;SDS011;4734;52.778;6.798;2023-08-20T02:18:44;2.90;;;2.42;;
9388;SDS011;4734;52.778;6.798;2023-08-20T02:21:30;5.25;;;2.97;;
9388;SDS011;4734;52.778;6.798;2023-08-20T02:24:16;3.22;;;2.63;;
9388;SDS011;4734;52.778;6.798;2023-08-20T02:27:01;2.30;;;2.10;;
9388;SDS011;4734;52.778;6.798;2023-08-20T02:29:47;2.15;;;1.80;;
9388;SDS011;4734;52.778;6.798;2023-08-20T02:32:33;2.63;;;2.33;;
9388;SDS011;4734;52.778;6.798;2023-08-20T02:35:20;1.77;;;1.67;;
9388;SDS011;4734;52.778;6.798;2023-08-20T02:38:06;4.10;;;1.80;;
9388;SDS011;4734;52.778;6.798;2023-08-20T02:40:53;54.45;;;3.55;;
9388;SDS011;4734;52.778;6.798;2023-08-20T02:43:38;1.80;;;1.70;;
9388;SDS011;4734;52.778;6.798;2023-08-20T02:46:24;146.77;;;7.10;;
9388;SDS011;4734;52.778;6.798;2023-08-20T02:49:10;9.65;;;3.55;;
9388;SDS011;4734;52.778;6.798;2023-08-20T02:51:57;12.48;;;3.65;;
9388;SDS011;4734;52.778;6.798;2023-08-20T02:54:42;2.75;;;2.55;;
9388;SDS011;4734;52.778;6.798;2023-08-20T02:57:28;4.03;;;3.58;;
9388;SDS011;4734;52.778;6.798;2023-08-20T03:00:14;3.78;;;3.47;;
9388;SDS011;4734;52.778;6.798;2023-08-20T03:02:59;3.75;;;3.05;;
9388;SDS011;4734;52.778;6.798;2023-08-20T03:05:47;3.05;;;2.72;;
9388;SDS011;4734;52.778;6.798;2023-08-20T03:08:34;6.10;;;4.53;;
9388;SDS011;4734;52.778;6.798;2023-08-20T03:11:20;9.43;;;4.47;;
9388;SDS011;4734;52.778;6.798;2023-08-20T03:14:05;4.50;;;4.10;;
9388;SDS011;4734;52.778;6.798;2023-08-20T03:16:51;5.95;;;4.43;;
9388;SDS011;4734;52.778;6.798;2023-08-20T03:19:36;7.47;;;4.82;;
9388;SDS011;4734;52.778;6.798;2023-08-20T03:22:38;9.40;;;5.00;;
9388;SDS011;4734;52.778;6.798;2023-08-20T03:25:25;7.88;;;5.03;;
9388;SDS011;4734;52.778;6.798;2023-08-20T03:28:10;10.73;;;5.47;;
9388;SDS011;4734;52.778;6.798;2023-08-20T03:30:59;8.15;;;4.85;;
9388;SDS011;4734;52.778;6.798;2023-08-20T03:33:45;12.40;;;5.15;;
9388;SDS011;4734;52.778;6.798;2023-08-20T03:36:31;7.30;;;5.07;;
9388;SDS011;4734;52.778;6.798;2023-08-20T03:39:17;8.57;;;5.60;;
9388;SDS011;4734;52.778;6.798;2023-08-20T03:42:05;8.63;;;5.28;;
9388;SDS011;4734;52.778;6.798;2023-08-20T03:44:50;11.75;;;6.25;;
9388;SDS011;4734;52.778;6.798;2023-08-20T03:47:36;8.90;;;5.97;;
9388;SDS011;4734;52.778;6.798;2023-08-20T03:50:22;6.20;;;4.97;;
9388;SDS011;4734;52.778;6.798;2023-08-20T03:53:07;6.93;;;4.85;;
9388;SDS011;4734;52.778;6.798;2023-08-20T03:55:53;9.05;;;5.40;;
9388;SDS011;4734;52.778;6.798;2023-08-20T03:58:40;7.55;;;5.50;;
9388;SDS011;4734;52.778;6.798;2023-08-20T04:01:25;6.72;;;4.93;;
9388;SDS011;4734;52.778;6.798;2023-08-20T04:04:11;5.97;;;5.10;;
9388;SDS011;4734;52.778;6.798;2023-08-20T04:06:57;5.65;;;4.55;;
9388;SDS011;4734;52.778;6.798;2023-08-20T04:09:42;4.82;;;4.13;;
9388;SDS011;4734;52.778;6.798;2023-08-20T04:12:28;3.30;;;3.00;;
9388;SDS011;4734;52.778;6.798;2023-08-20T04:15:15;4.53;;;3.78;;
9388;SDS011;4734;52.778;6.798;2023-08-20T04:18:00;4.85;;;4.45;;
9388;SDS011;4734;52.778;6.798;2023-08-20T04:20:46;3.65;;;3.30;;
9388;SDS011;4734;52.778;6.798;2023-08-20T04:23:32;4.53;;;3.67;;
9388;SDS011;4734;52.778;6.798;2023-08-20T04:26:18;4.10;;;3.70;;
9388;SDS011;4734;52.778;6.798;2023-08-20T04:29:04;3.28;;;2.92;;
9388;SDS011;4734;52.778;6.798;2023-08-20T04:31:52;4.43;;;3.72;;
9388;SDS011;4734;52.778;6.798;2023-08-20T04:34:37;4.78;;;4.38;;
9388;SDS011;4734;52.778;6.798;2023-08-20T04:37:23;3.38;;;2.50;;
9388;SDS011;4734;52.778;6.798;2023-08-20T04:40:09;6.72;;;5.00;;
9388;SDS011;4734;52.778;6.798;2023-08-20T04:42:56;7.68;;;5.32;;
9388;SDS011;4734;52.778;6.798;2023-08-20T04:45:42;8.38;;;5.57;;
9388;SDS011;4734;52.778;6.798;2023-08-20T04:48:29;7.85;;;4.85;;
9388;SDS011;4734;52.778;6.798;2023-08-20T04:51:14;5.22;;;4.60;;
9388;SDS011;4734;52.778;6.798;2023-08-20T04:54:00;8.32;;;6.75;;
9388;SDS011;4734;52.778;6.798;2023-08-20T04:56:45;12.45;;;8.20;;
9388;SDS011;4734;52.778;6.798;2023-08-20T04:59:31;11.00;;;7.70;;
9388;SDS011;4734;52.778;6.798;2023-08-20T05:02:17;8.38;;;7.15;;
9388;SDS011;4734;52.778;6.798;2023-08-20T05:05:04;12.18;;;8.02;;
9388;SDS011;4734;52.778;6.798;2023-08-20T05:07:50;5.30;;;4.80;;
9388;SDS011;4734;52.778;6.798;2023-08-20T05:10:35;7.00;;;6.18;;
9388;SDS011;4734;52.778;6.798;2023-08-20T05:13:21;9.27;;;7.50;;
9388;SDS011;4734;52.778;6.798;2023-08-20T05:16:07;11.43;;;6.68;;
9388;SDS011;4734;52.778;6.798;2023-08-20T05:18:53;7.70;;;6.90;;
9388;SDS011;4734;52.778;6.798;2023-08-20T05:21:40;7.65;;;6.85;;
9388;SDS011;4734;52.778;6.798;2023-08-20T05:24:25;8.10;;;6.97;;
9388;SDS011;4734;52.778;6.798;2023-08-20T05:27:13;11.10;;;7.97;;
9388;SDS011;4734;52.778;6.798;2023-08-20T05:30:00;8.05;;;7.05;;
9388;SDS011;4734;52.778;6.798;2023-08-20T05:32:46;10.65;;;7.28;;
9388;SDS011;4734;52.778;6.798;2023-08-20T05:35:32;8.43;;;7.68;;
9388;SDS011;4734;52.778;6.798;2023-08-20T05:38:19;10.52;;;8.10;;
9388;SDS011;4734;52.778;6.798;2023-08-20T05:41:05;9.05;;;8.07;;
9388;SDS011;4734;52.778;6.798;2023-08-20T05:43:50;10.73;;;8.40;;
9388;SDS011;4734;52.778;6.798;2023-08-20T05:46:36;9.63;;;8.27;;
9388;SDS011;4734;52.778;6.798;2023-08-20T05:49:22;11.10;;;8.55;;
9388;SDS011;4734;52.778;6.798;2023-08-20T05:52:08;10.02;;;8.38;;
9388;SDS011;4734;52.778;6.798;2023-08-20T05:54:55;8.57;;;7.65;;
9388;SDS011;4734;52.778;6.798;2023-08-20T05:57:40;9.52;;;8.45;;
9388;SDS011;4734;52.778;6.798;2023-08-20T06:00:26;11.93;;;8.02;;
9388;SDS011;4734;52.778;6.798;2023-08-20T06:03:12;9.13;;;8.15;;
9388;SDS011;4734;52.778;6.798;2023-08-20T06:05:58;13.60;;;8.48;;
9388;SDS011;4734;52.778;6.798;2023-08-20T06:08:43;15.70;;;8.63;;
9388;SDS011;4734;52.778;6.798;2023-08-20T06:11:30;10.48;;;7.88;;
9388;SDS011;4734;52.778;6.798;2023-08-20T06:14:16;9.32;;;8.25;;
9388;SDS011;4734;52.778;6.798;2023-08-20T06:17:01;10.45;;;7.82;;
9388;SDS011;4734;52.778;6.798;2023-08-20T06:19:47;14.35;;;9.05;;
9388;SDS011;4734;52.778;6.798;2023-08-20T06:22:33;17.20;;;8.85;;
9388;SDS011;4734;52.778;6.798;2023-08-20T06:25:18;13.00;;;7.90;;
9388;SDS011;4734;52.778;6.798;2023-08-20T06:28:05;14.40;;;8.20;;
9388;SDS011;4734;52.778;6.798;2023-08-20T06:30:51;14.35;;;8.45;;
9388;SDS011;4734;52.778;6.798;2023-08-20T06:33:36;10.95;;;8.75;;
9388;SDS011;4734;52.778;6.798;2023-08-20T06:36:22;11.65;;;8.05;;
9388;SDS011;4734;52.778;6.798;2023-08-20T06:39:08;11.57;;;8.60;;
9388;SDS011;4734;52.778;6.798;2023-08-20T06:41:53;10.35;;;7.75;;
9388;SDS011;4734;52.778;6.798;2023-08-20T06:44:40;12.55;;;8.73;;
9388;SDS011;4734;52.778;6.798;2023-08-20T06:47:25;10.45;;;8.00;;
9388;SDS011;4734;52.778;6.798;2023-08-20T06:50:11;11.35;;;7.95;;
9388;SDS011;4734;52.778;6.798;2023-08-20T06:52:56;11.43;;;7.95;;
9388;SDS011;4734;52.778;6.798;2023-08-20T06:55:42;10.27;;;7.47;;
9388;SDS011;4734;52.778;6.798;2023-08-20T06:58:28;9.95;;;6.15;;
9388;SDS011;4734;52.778;6.798;2023-08-20T07:01:15;10.73;;;6.28;;
9388;SDS011;4734;52.778;6.798;2023-08-20T07:04:00;10.18;;;5.80;;
9388;SDS011;4734;52.778;6.798;2023-08-20T07:06:46;11.20;;;5.32;;
9388;SDS011;4734;52.778;6.798;2023-08-20T07:09:36;8.93;;;5.50;;
9388;SDS011;4734;52.778;6.798;2023-08-20T07:12:31;11.68;;;6.00;;
9388;SDS011;4734;52.778;6.798;2023-08-20T07:15:16;10.30;;;5.43;;
9388;SDS011;4734;52.778;6.798;2023-08-20T07:18:04;8.45;;;5.68;;
9388;SDS011;4734;52.778;6.798;2023-08-20T07:20:49;8.32;;;5.50;;
9388;SDS011;4734;52.778;6.798;2023-08-20T07:23:35;11.73;;;5.55;;
9388;SDS011;4734;52.778;6.798;2023-08-20T07:26:21;9.23;;;5.32;;
9388;SDS011;4734;52.778;6.798;2023-08-20T07:29:07;10.43;;;5.40;;
9388;SDS011;4734;52.778;6.798;2023-08-20T07:31:52;9.00;;;4.70;;
9388;SDS011;4734;52.778;6.798;2023-08-20T07:34:39;8.52;;;4.45;;
9388;SDS011;4734;52.778;6.798;2023-08-20T07:37:25;15.60;;;5.55;;
9388;SDS011;4734;52.778;6.798;2023-08-20T07:40:11;11.63;;;4.90;;
9388;SDS011;4734;52.778;6.798;2023-08-20T07:42:57;12.40;;;4.53;;
9388;SDS011;4734;52.778;6.798;2023-08-20T07:45:42;8.57;;;4.32;;
9388;SDS011;4734;52.778;6.798;2023-08-20T07:48:28;6.70;;;4.35;;
9388;SDS011;4734;52.778;6.798;2023-08-20T07:51:15;8.27;;;4.22;;
9388;SDS011;4734;52.778;6.798;2023-08-20T07:54:00;7.47;;;3.70;;
9388;SDS011;4734;52.778;6.798;2023-08-20T07:56:46;7.82;;;4.15;;
9388;SDS011;4734;52.778;6.798;2023-08-20T07:59:32;8.70;;;4.28;;
9388;SDS011;4734;52.778;6.798;2023-08-20T08:02:18;6.70;;;3.70;;
9388;SDS011;4734;52.778;6.798;2023-08-20T08:05:03;7.22;;;3.63;;
9388;SDS011;4734;52.778;6.798;2023-08-20T08:07:51;10.15;;;4.03;;
9388;SDS011;4734;52.778;6.798;2023-08-20T08:10:36;10.18;;;4.38;;
9388;SDS011;4734;52.778;6.798;2023-08-20T08:13:22;7.45;;;4.20;;
9388;SDS011;4734;52.778;6.798;2023-08-20T08:16:08;8.63;;;4.20;;
9388;SDS011;4734;52.778;6.798;2023-08-20T08:18:53;10.35;;;3.55;;
9388;SDS011;4734;52.778;6.798;2023-08-20T08:21:39;5.65;;;2.83;;
9388;SDS011;4734;52.778;6.798;2023-08-20T08:24:27;8.85;;;3.28;;
9388;SDS011;4734;52.778;6.798;2023-08-20T08:27:12;7.43;;;3.13;;
9388;SDS011;4734;52.778;6.798;2023-08-20T08:29:58;6.97;;;2.47;;
9388;SDS011;4734;52.778;6.798;2023-08-20T08:32:44;10.18;;;2.75;;
9388;SDS011;4734;52.778;6.798;2023-08-20T08:35:30;5.35;;;2.58;;
9388;SDS011;4734;52.778;6.798;2023-08-20T08:38:15;7.90;;;2.70;;
9388;SDS011;4734;52.778;6.798;2023-08-20T08:41:02;8.00;;;2.40;;
9388;SDS011;4734;52.778;6.798;2023-08-20T08:43:54;5.43;;;2.17;;
9388;SDS011;4734;52.778;6.798;2023-08-20T08:46:40;7.07;;;2.53;;
9388;SDS011;4734;52.778;6.798;2023-08-20T08:49:26;8.60;;;2.50;;
9388;SDS011;4734;52.778;6.798;2023-08-20T08:52:13;6.60;;;2.10;;
9388;SDS011;4734;52.778;6.798;2023-08-20T08:55:00;5.47;;;1.80;;
9388;SDS011;4734;52.778;6.798;2023-08-20T08:57:49;7.82;;;2.13;;
9388;SDS011;4734;52.778;6.798;2023-08-20T09:00:34;6.88;;;2.15;;
9388;SDS011;4734;52.778;6.798;2023-08-20T09:03:21;6.10;;;2.10;;
9388;SDS011;4734;52.778;6.798;2023-08-20T09:06:08;7.68;;;2.00;;
9388;SDS011;4734;52.778;6.798;2023-08-20T09:08:57;5.88;;;2.03;;
9388;SDS011;4734;52.778;6.798;2023-08-20T09:11:48;4.47;;;1.90;;
9388;SDS011;4734;52.778;6.798;2023-08-20T09:14:35;4.50;;;2.00;;
9388;SDS011;4734;52.778;6.798;2023-08-20T09:17:21;5.50;;;1.77;;
9388;SDS011;4734;52.778;6.798;2023-08-20T09:20:10;5.05;;;1.98;;
9388;SDS011;4734;52.778;6.798;2023-08-20T09:22:55;6.57;;;2.10;;
9388;SDS011;4734;52.778;6.798;2023-08-20T09:25:42;5.78;;;1.80;;
9388;SDS011;4734;52.778;6.798;2023-08-20T09:28:29;4.65;;;1.73;;
9388;SDS011;4734;52.778;6.798;2023-08-20T09:31:37;4.07;;;1.90;;
9388;SDS011;4734;52.778;6.798;2023-08-20T09:34:24;5.55;;;1.92;;
9388;SDS011;4734;52.778;6.798;2023-08-20T09:37:10;5.38;;;1.70;;
9388;SDS011;4734;52.778;6.798;2023-08-20T09:39:57;3.35;;;1.50;;
9388;SDS011;4734;52.778;6.798;2023-08-20T09:42:43;4.20;;;1.60;;
9388;SDS011;4734;52.778;6.798;2023-08-20T09:45:30;4.45;;;1.48;;
9388;SDS011;4734;52.778;6.798;2023-08-20T09:48:18;3.03;;;1.30;;
9388;SDS011;4734;52.778;6.798;2023-08-20T09:51:04;5.70;;;1.65;;
9388;SDS011;4734;52.778;6.798;2023-08-20T09:53:55;3.20;;;1.20;;
9388;SDS011;4734;52.778;6.798;2023-08-20T09:56:54;3.17;;;1.55;;
9388;SDS011;4734;52.778;6.798;2023-08-20T09:59:42;5.20;;;1.50;;
9388;SDS011;4734;52.778;6.798;2023-08-20T10:02:27;4.18;;;1.33;;
9388;SDS011;4734;52.778;6.798;2023-08-20T10:05:15;3.40;;;1.45;;
9388;SDS011;4734;52.778;6.798;2023-08-20T10:08:01;5.00;;;1.70;;
9388;SDS011;4734;52.778;6.798;2023-08-20T10:10:47;6.00;;;1.95;;
9388;SDS011;4734;52.778;6.798;2023-08-20T10:13:33;4.72;;;2.05;;
9388;SDS011;4734;52.778;6.798;2023-08-20T10:16:18;2.78;;;1.27;;
9388;SDS011;4734;52.778;6.798;2023-08-20T10:19:07;4.63;;;1.73;;
9388;SDS011;4734;52.778;6.798;2023-08-20T10:21:54;2.80;;;1.27;;
9388;SDS011;4734;52.778;6.798;2023-08-20T10:24:44;5.63;;;1.42;;
9388;SDS011;4734;52.778;6.798;2023-08-20T10:27:33;4.85;;;1.70;;
9388;SDS011;4734;52.778;6.798;2023-08-20T10:30:23;4.68;;;1.70;;
9388;SDS011;4734;52.778;6.798;2023-08-20T10:33:10;3.13;;;1.40;;
9388;SDS011;4734;52.778;6.798;2023-08-20T10:35:58;3.30;;;1.55;;
9388;SDS011;4734;52.778;6.798;2023-08-20T10:38:53;1.88;;;1.10;;
9388;SDS011;4734;52.778;6.798;2023-08-20T10:41:40;3.63;;;1.38;;
9388;SDS011;4734;52.778;6.798;2023-08-20T10:44:26;4.90;;;1.42;;
9388;SDS011;4734;52.778;6.798;2023-08-20T10:47:12;3.78;;;1.20;;
9388;SDS011;4734;52.778;6.798;2023-08-20T10:50:02;2.40;;;1.20;;
9388;SDS011;4734;52.778;6.798;2023-08-20T10:52:48;2.40;;;1.23;;
9388;SDS011;4734;52.778;6.798;2023-08-20T10:55:36;2.15;;;1.10;;
9388;SDS011;4734;52.778;6.798;2023-08-20T10:58:23;2.88;;;1.48;;
9388;SDS011;4734;52.778;6.798;2023-08-20T11:01:12;3.38;;;1.55;;
9388;SDS011;4734;52.778;6.798;2023-08-20T11:04:03;2.80;;;1.20;;
9388;SDS011;4734;52.778;6.798;2023-08-20T11:06:52;2.78;;;1.10;;
9388;SDS011;4734;52.778;6.798;2023-08-20T11:09:38;3.22;;;1.40;;
9388;SDS011;4734;52.778;6.798;2023-08-20T11:12:28;4.38;;;1.33;;
9388;SDS011;4734;52.778;6.798;2023-08-20T11:15:14;3.33;;;1.20;;
9388;SDS011;4734;52.778;6.798;2023-08-20T11:18:00;2.50;;;1.35;;
9388;SDS011;4734;52.778;6.798;2023-08-20T11:20:46;2.83;;;1.55;;
9388;SDS011;4734;52.778;6.798;2023-08-20T11:23:32;2.95;;;1.33;;
9388;SDS011;4734;52.778;6.798;2023-08-20T11:26:18;3.05;;;1.40;;
9388;SDS011;4734;52.778;6.798;2023-08-20T11:29:06;2.63;;;1.20;;
9388;SDS011;4734;52.778;6.798;2023-08-20T11:31:52;4.03;;;1.40;;
9388;SDS011;4734;52.778;6.798;2023-08-20T11:34:39;2.30;;;1.30;;
9388;SDS011;4734;52.778;6.798;2023-08-20T11:37:24;5.20;;;1.70;;
9388;SDS011;4734;52.778;6.798;2023-08-20T11:40:11;4.10;;;1.33;;
9388;SDS011;4734;52.778;6.798;2023-08-20T11:42:57;2.38;;;1.25;;
9388;SDS011;4734;52.778;6.798;2023-08-20T11:45:47;3.22;;;1.13;;
9388;SDS011;4734;52.778;6.798;2023-08-20T11:48:34;2.42;;;1.10;;
9388;SDS011;4734;52.778;6.798;2023-08-20T11:51:20;2.20;;;0.93;;
9388;SDS011;4734;52.778;6.798;2023-08-20T11:54:06;2.13;;;1.00;;
9388;SDS011;4734;52.778;6.798;2023-08-20T11:57:01;2.72;;;1.23;;
9388;SDS011;4734;52.778;6.798;2023-08-20T11:59:47;2.42;;;0.90;;
9388;SDS011;4734;52.778;6.798;2023-08-20T12:02:34;3.03;;;1.40;;
9388;SDS011;4734;52.778;6.798;2023-08-20T12:05:19;2.22;;;0.93;;
9388;SDS011;4734;52.778;6.798;2023-08-20T12:08:05;4.65;;;1.30;;
9388;SDS011;4734;52.778;6.798;2023-08-20T12:10:51;5.82;;;1.50;;
9388;SDS011;4734;52.778;6.798;2023-08-20T12:13:42;3.63;;;1.23;;
9388;SDS011;4734;52.778;6.798;2023-08-20T12:16:28;2.50;;;1.42;;
9388;SDS011;4734;52.778;6.798;2023-08-20T12:19:15;3.22;;;1.20;;
9388;SDS011;4734;52.778;6.798;2023-08-20T12:22:00;2.83;;;0.98;;
9388;SDS011;4734;52.778;6.798;2023-08-20T12:24:47;1.88;;;0.88;;
9388;SDS011;4734;52.778;6.798;2023-08-20T12:27:35;1.83;;;1.13;;
9388;SDS011;4734;52.778;6.798;2023-08-20T12:30:21;2.53;;;1.20;;
9388;SDS011;4734;52.778;6.798;2023-08-20T12:33:06;2.15;;;0.88;;
9388;SDS011;4734;52.778;6.798;2023-08-20T12:35:54;3.05;;;0.80;;
9388;SDS011;4734;52.778;6.798;2023-08-20T12:38:40;1.48;;;1.02;;
9388;SDS011;4734;52.778;6.798;2023-08-20T12:41:26;1.95;;;0.85;;
9388;SDS011;4734;52.778;6.798;2023-08-20T12:44:11;3.78;;;0.85;;
9388;SDS011;4734;52.778;6.798;2023-08-20T12:46:57;1.65;;;0.90;;
9388;SDS011;4734;52.778;6.798;2023-08-20T12:49:43;1.73;;;0.80;;
9388;SDS011;4734;52.778;6.798;2023-08-20T12:52:29;3.95;;;0.90;;
9388;SDS011;4734;52.778;6.798;2023-08-20T12:55:15;3.95;;;1.08;;
9388;SDS011;4734;52.778;6.798;2023-08-20T12:58:01;2.20;;;1.00;;
9388;SDS011;4734;52.778;6.798;2023-08-20T13:00:47;2.55;;;1.15;;
9388;SDS011;4734;52.778;6.798;2023-08-20T13:03:32;2.33;;;0.90;;
9388;SDS011;4734;52.778;6.798;2023-08-20T13:06:19;2.08;;;1.02;;
9388;SDS011;4734;52.778;6.798;2023-08-20T13:09:07;1.73;;;0.80;;
9388;SDS011;4734;52.778;6.798;2023-08-20T13:11:54;1.67;;;0.80;;
9388;SDS011;4734;52.778;6.798;2023-08-20T13:14:41;2.97;;;1.08;;
9388;SDS011;4734;52.778;6.798;2023-08-20T13:17:27;1.55;;;1.20;;
9388;SDS011;4734;52.778;6.798;2023-08-20T13:20:13;3.58;;;1.67;;
9388;SDS011;4734;52.778;6.798;2023-08-20T13:22:59;2.65;;;1.20;;
9388;SDS011;4734;52.778;6.798;2023-08-20T13:25:46;2.28;;;1.17;;
9388;SDS011;4734;52.778;6.798;2023-08-20T13:28:31;2.78;;;1.30;;
9388;SDS011;4734;52.778;6.798;2023-08-20T13:31:17;2.10;;;1.30;;
9388;SDS011;4734;52.778;6.798;2023-08-20T13:34:03;2.28;;;1.45;;
9388;SDS011;4734;52.778;6.798;2023-08-20T13:36:48;3.15;;;1.20;;
9388;SDS011;4734;52.778;6.798;2023-08-20T13:39:34;3.47;;;1.38;;
9388;SDS011;4734;52.778;6.798;2023-08-20T13:42:21;2.28;;;1.02;;
9388;SDS011;4734;52.778;6.798;2023-08-20T13:45:07;3.42;;;1.10;;
9388;SDS011;4734;52.778;6.798;2023-08-20T13:47:53;2.67;;;1.45;;
9388;SDS011;4734;52.778;6.798;2023-08-20T13:50:39;3.67;;;1.30;;
9388;SDS011;4734;52.778;6.798;2023-08-20T13:53:24;2.35;;;1.33;;
9388;SDS011;4734;52.778;6.798;2023-08-20T13:56:10;2.40;;;0.88;;
9388;SDS011;4734;52.778;6.798;2023-08-20T13:58:57;2.83;;;1.35;;
9388;SDS011;4734;52.778;6.798;2023-08-20T14:01:43;5.45;;;1.38;;
9388;SDS011;4734;52.778;6.798;2023-08-20T14:04:28;2.80;;;1.40;;
9388;SDS011;4734;52.778;6.798;2023-08-20T14:07:14;2.33;;;1.10;;
9388;SDS011;4734;52.778;6.798;2023-08-20T14:10:00;2.70;;;1.23;;
9388;SDS011;4734;52.778;6.798;2023-08-20T14:12:45;2.00;;;0.90;;
9388;SDS011;4734;52.778;6.798;2023-08-20T14:15:32;2.00;;;1.08;;
9388;SDS011;4734;52.778;6.798;2023-08-20T14:18:18;2.10;;;1.23;;
9388;SDS011;4734;52.778;6.798;2023-08-20T14:21:04;1.58;;;0.88;;
9388;SDS011;4734;52.778;6.798;2023-08-20T14:23:50;1.45;;;0.70;;
9388;SDS011;4734;52.778;6.798;2023-08-20T14:26:36;2.65;;;1.10;;
9388;SDS011;4734;52.778;6.798;2023-08-20T14:29:21;2.55;;;1.30;;
9388;SDS011;4734;52.778;6.798;2023-08-20T14:32:08;1.50;;;0.70;;
9388;SDS011;4734;52.778;6.798;2023-08-20T14:34:54;1.90;;;1.00;;
9388;SDS011;4734;52.778;6.798;2023-08-20T14:37:39;2.00;;;0.90;;
9388;SDS011;4734;52.778;6.798;2023-08-20T14:40:25;1.67;;;0.90;;
9388;SDS011;4734;52.778;6.798;2023-08-20T14:43:11;1.13;;;0.70;;
9388;SDS011;4734;52.778;6.798;2023-08-20T14:45:56;1.75;;;0.90;;
9388;SDS011;4734;52.778;6.798;2023-08-20T14:48:43;2.53;;;1.00;;
9388;SDS011;4734;52.778;6.798;2023-08-20T14:51:29;1.50;;;0.73;;
9388;SDS011;4734;52.778;6.798;2023-08-20T14:54:15;1.27;;;0.77;;
9388;SDS011;4734;52.778;6.798;2023-08-20T14:57:00;3.70;;;0.73;;
9388;SDS011;4734;52.778;6.798;2023-08-20T14:59:46;0.75;;;0.63;;
9388;SDS011;4734;52.778;6.798;2023-08-20T15:02:32;1.30;;;0.65;;
9388;SDS011;4734;52.778;6.798;2023-08-20T15:05:19;4.40;;;0.90;;
9388;SDS011;4734;52.778;6.798;2023-08-20T15:08:05;1.52;;;0.90;;
9388;SDS011;4734;52.778;6.798;2023-08-20T15:10:55;2.53;;;0.90;;
9388;SDS011;4734;52.778;6.798;2023-08-20T15:13:42;2.25;;;1.25;;
9388;SDS011;4734;52.778;6.798;2023-08-20T15:16:28;3.38;;;1.20;;
9388;SDS011;4734;52.778;6.798;2023-08-20T15:19:13;2.75;;;1.17;;
9388;SDS011;4734;52.778;6.798;2023-08-20T15:22:00;2.80;;;1.00;;
9388;SDS011;4734;52.778;6.798;2023-08-20T15:24:47;2.58;;;0.95;;
9388;SDS011;4734;52.778;6.798;2023-08-20T15:27:34;1.38;;;0.93;;
9388;SDS011;4734;52.778;6.798;2023-08-20T15:30:19;1.80;;;1.08;;
9388;SDS011;4734;52.778;6.798;2023-08-20T15:33:08;4.53;;;1.67;;
9388;SDS011;4734;52.778;6.798;2023-08-20T15:35:54;11.25;;;8.35;;
9388;SDS011;4734;52.778;6.798;2023-08-20T15:38:42;2.25;;;1.40;;
9388;SDS011;4734;52.778;6.798;2023-08-20T15:41:28;3.35;;;1.50;;
9388;SDS011;4734;52.778;6.798;2023-08-20T15:44:14;11.23;;;10.10;;
9388;SDS011;4734;52.778;6.798;2023-08-20T15:46:59;2.33;;;1.48;;
9388;SDS011;4734;52.778;6.798;2023-08-20T15:49:45;4.47;;;2.30;;
9388;SDS011;4734;52.778;6.798;2023-08-20T15:52:30;1.95;;;1.33;;
9388;SDS011;4734;52.778;6.798;2023-08-20T15:55:17;3.47;;;1.40;;
9388;SDS011;4734;52.778;6.798;2023-08-20T15:58:03;4.57;;;2.88;;
9388;SDS011;4734;52.778;6.798;2023-08-20T16:00:49;3.72;;;2.38;;
9388;SDS011;4734;52.778;6.798;2023-08-20T16:03:34;3.58;;;1.80;;
9388;SDS011;4734;52.778;6.798;2023-08-20T16:06:20;17.33;;;15.82;;
9388;SDS011;4734;52.778;6.798;2023-08-20T16:09:06;6.30;;;4.18;;
9388;SDS011;4734;52.778;6.798;2023-08-20T16:11:54;47.78;;;34.80;;
9388;SDS011;4734;52.778;6.798;2023-08-20T16:14:39;36.42;;;32.92;;
9388;SDS011;4734;52.778;6.798;2023-08-20T16:17:25;10.45;;;9.40;;
9388;SDS011;4734;52.778;6.798;2023-08-20T16:20:10;3.63;;;2.55;;
9388;SDS011;4734;52.778;6.798;2023-08-20T16:22:56;4.45;;;2.05;;
9388;SDS011;4734;52.778;6.798;2023-08-20T16:25:41;2.78;;;1.50;;
9388;SDS011;4734;52.778;6.798;2023-08-20T16:28:28;3.63;;;1.77;;
9388;SDS011;4734;52.778;6.798;2023-08-20T16:31:14;5.40;;;1.70;;
9388;SDS011;4734;52.778;6.798;2023-08-20T16:34:00;4.72;;;1.60;;
9388;SDS011;4734;52.778;6.798;2023-08-20T16:36:45;2.85;;;1.60;;
9388;SDS011;4734;52.778;6.798;2023-08-20T16:39:31;4.13;;;1.50;;
9388;SDS011;4734;52.778;6.798;2023-08-20T16:42:17;2.10;;;1.27;;
9388;SDS011;4734;52.778;6.798;2023-08-20T16:45:04;2.28;;;1.20;;
9388;SDS011;4734;52.778;6.798;2023-08-20T16:47:50;3.45;;;1.33;;
9388;SDS011;4734;52.778;6.798;2023-08-20T16:50:36;4.63;;;1.75;;
9388;SDS011;4734;52.778;6.798;2023-08-20T16:53:22;2.28;;;1.25;;
9388;SDS011;4734;52.778;6.798;2023-08-20T16:56:07;3.35;;;1.35;;
9388;SDS011;4734;52.778;6.798;2023-08-20T16:58:53;3.80;;;1.83;;
9388;SDS011;4734;52.778;6.798;2023-08-20T17:01:40;5.97;;;1.33;;
9388;SDS011;4734;52.778;6.798;2023-08-20T17:04:25;2.70;;;1.80;;
9388;SDS011;4734;52.778;6.798;2023-08-20T17:07:11;12.40;;;2.28;;
9388;SDS011;4734;52.778;6.798;2023-08-20T17:09:57;1.98;;;1.20;;
9388;SDS011;4734;52.778;6.798;2023-08-20T17:12:43;3.15;;;1.67;;
9388;SDS011;4734;52.778;6.798;2023-08-20T17:15:29;3.35;;;1.30;;